In Rescue
 
Open Full Screen Window  High Contrast Mode
Wind Gusting 00 knots
08
September 19, 2019 4:43 PM CDT
Weather Information
Wind Direction
  140 °
Wind Speed
  08 kt (9 mph)
Wind Gust
  00 kt (0 mph)
Altimeter
29.96 in
Visibility
10 SM
Temperature
29° C
84° F
Dewpoint
17° C
63° F
Humidity
48%
1hr Rain Fall
00.00 in.
24hr Rain Fall
00.00 in.
Sky Condition
Clear
VFR

METAR KCNB 192143Z AUTO 14008KT 10SM CLR 29/17 A2996 RMK AO2

FAA Disclaimer: The data displayed is for advisory purposes only and is not to be used for flight planning or operations.